Time;durP1;ratioP1;P1;durP2;ratioP2;P2;SDS_P1;SDS_P2;PMS_P1;PMS_P2;Temp;Humidity;BMP_temperature;BMP_pressure;BME280_temperature;BME280_humidity;BME280_pressure;Samples;Min_cycle;Max_cycle;Signal;HPM_P1;HPM_P2
2023/05/30 00:00:25;;;;;;;76.17;3.13;;;20.60;26.90;;;;;;5054055;28;20414;-70
2023/05/30 00:02:51;;;;;;;74.43;2.30;;;20.70;26.50;;;;;;5053087;28;20612;-71
2023/05/30 00:05:17;;;;;;;74.87;2.53;;;20.60;26.80;;;;;;5053145;28;20512;-72
2023/05/30 00:07:43;;;;;;;74.90;2.33;;;20.60;27.20;;;;;;5052414;28;20553;-72
2023/05/30 00:10:08;;;;;;;74.60;2.23;;;20.40;27.80;;;;;;5054071;28;20183;-71
2023/05/30 00:12:35;;;;;;;74.83;2.07;;;20.40;28.70;;;;;;5053182;28;20196;-71
2023/05/30 00:15:01;;;;;;;75.67;2.43;;;20.30;28.00;;;;;;5053876;28;20254;-72
2023/05/30 00:17:27;;;;;;;74.57;2.13;;;20.20;28.20;;;;;;5053663;28;20505;-71
2023/05/30 00:19:54;;;;;;;74.63;2.00;;;20.10;27.80;;;;;;5052367;28;20571;-72
2023/05/30 00:22:20;;;;;;;75.00;2.30;;;20.00;28.30;;;;;;5053364;28;20207;-71
2023/05/30 00:24:46;;;;;;;75.30;2.40;;;20.00;28.10;;;;;;5053411;28;20949;-72
2023/05/30 00:27:13;;;;;;;75.07;2.50;;;20.00;26.80;;;;;;5053414;28;20467;-71
2023/05/30 00:29:39;;;;;;;74.90;2.33;;;20.10;26.00;;;;;;5053668;28;20189;-71
2023/05/30 00:32:05;;;;;;;75.70;2.60;;;19.80;28.80;;;;;;5053312;28;20929;-71
2023/05/30 00:34:30;;;;;;;75.57;2.10;;;19.70;28.90;;;;;;5053030;28;20253;-72
2023/05/30 00:36:56;;;;;;;75.30;2.10;;;19.70;27.80;;;;;;5053455;28;20873;-72
2023/05/30 00:39:22;;;;;;;75.57;2.30;;;19.70;28.40;;;;;;5052269;28;20202;-73
2023/05/30 00:41:47;;;;;;;75.67;2.40;;;19.60;29.10;;;;;;5053205;28;20267;-71
2023/05/30 00:44:13;;;;;;;75.47;2.20;;;19.50;29.00;;;;;;5051490;28;20179;-70
2023/05/30 00:46:39;;;;;;;75.50;2.40;;;19.50;28.50;;;;;;5053099;28;20259;-70
2023/05/30 00:49:05;;;;;;;75.87;2.30;;;19.50;29.30;;;;;;5053418;28;20709;-70
2023/05/30 00:51:32;;;;;;;76.10;2.53;;;19.40;29.30;;;;;;5052947;28;20529;-70
2023/05/30 00:53:59;;;;;;;75.90;2.63;;;19.50;29.80;;;;;;5052328;28;20173;-72
2023/05/30 00:56:26;;;;;;;75.80;2.27;;;19.50;29.00;;;;;;5053243;28;20969;-71
2023/05/30 00:58:52;;;;;;;75.70;2.30;;;19.60;29.30;;;;;;5053084;28;20446;-72
2023/05/30 01:01:20;;;;;;;76.40;2.67;;;19.70;28.70;;;;;;5052938;28;20467;-70
2023/05/30 01:03:47;;;;;;;75.70;2.10;;;19.60;29.20;;;;;;5052147;28;20416;-70
2023/05/30 01:06:13;;;;;;;78.60;3.50;;;19.60;29.30;;;;;;5052935;28;20449;-70
2023/05/30 01:08:39;;;;;;;75.90;2.00;;;19.60;29.10;;;;;;5052894;28;20921;-70
2023/05/30 01:11:34;;;;;;;76.60;2.73;;;19.80;27.70;;;;;;5051518;28;20439;-70
2023/05/30 01:14:21;;;;;;;77.47;2.57;;;19.70;28.50;;;;;;5052049;28;20247;-70
2023/05/30 01:16:54;;;;;;;76.00;2.13;;;19.60;28.90;;;;;;5052378;28;20945;-70
2023/05/30 01:19:30;;;;;;;77.83;2.73;;;19.50;29.10;;;;;;5052889;28;20914;-70
2023/05/30 01:22:26;;;;;;;77.20;2.63;;;19.40;29.20;;;;;;5052430;28;20460;-71
2023/05/30 01:25:21;;;;;;;77.43;2.53;;;19.40;29.40;;;;;;5052103;28;20617;-70
2023/05/30 01:28:10;;;;;;;76.67;2.40;;;19.40;30.50;;;;;;5051085;28;20481;-70
2023/05/30 01:30:40;;;;;;;76.17;2.10;;;19.40;28.70;;;;;;5052228;28;20464;-70
2023/05/30 01:33:08;;;;;;;77.60;2.27;;;19.30;30.10;;;;;;5051788;28;20792;-70
2023/05/30 01:35:33;;;;;;;76.67;2.43;;;19.30;30.30;;;;;;5051177;28;20498;-70
2023/05/30 01:37:59;;;;;;;76.63;2.40;;;19.20;30.20;;;;;;5052205;28;20505;-70
2023/05/30 01:40:27;;;;;;;76.40;2.10;;;19.20;29.50;;;;;;5052416;28;20235;-70
2023/05/30 01:43:07;;;;;;;77.00;2.50;;;19.20;29.70;;;;;;5050079;28;20298;-72
2023/05/30 01:45:51;;;;;;;76.47;2.27;;;19.40;28.90;;;;;;5052163;28;20391;-70
2023/05/30 01:48:25;;;;;;;77.10;2.90;;;19.20;30.00;;;;;;5050854;28;20433;-70
2023/05/30 01:50:52;;;;;;;76.77;2.37;;;19.20;29.80;;;;;;5052097;28;20402;-70
2023/05/30 01:53:25;;;;;;;77.60;2.43;;;19.30;29.30;;;;;;5051333;28;20410;-70
2023/05/30 01:55:55;;;;;;;77.57;2.60;;;19.30;29.30;;;;;;5052094;28;20460;-70
2023/05/30 01:58:22;;;;;;;79.77;2.70;;;19.40;28.30;;;;;;5050583;28;20871;-70
2023/05/30 02:00:49;;;;;;;77.20;2.47;;;19.40;29.60;;;;;;5051873;28;20460;-70
2023/05/30 02:03:15;;;;;;;77.63;2.50;;;19.20;30.80;;;;;;5051284;28;20948;-70
2023/05/30 02:05:41;;;;;;;77.23;2.20;;;19.10;30.00;;;;;;5051223;28;20409;-73
2023/05/30 02:08:07;;;;;;;77.40;2.40;;;19.10;29.60;;;;;;5051603;28;20846;-70
2023/05/30 02:10:32;;;;;;;77.37;2.43;;;19.00;30.00;;;;;;5051895;28;20227;-70
2023/05/30 02:12:58;;;;;;;77.40;2.30;;;18.90;30.40;;;;;;5050824;28;20708;-70
2023/05/30 02:15:23;;;;;;;77.73;2.43;;;18.80;30.60;;;;;;5051728;28;20162;-71
2023/05/30 02:17:49;;;;;;;77.47;2.33;;;18.80;30.60;;;;;;5050456;28;20176;-70
2023/05/30 02:20:15;;;;;;;77.57;2.27;;;18.70;31.10;;;;;;5051683;28;20169;-70
2023/05/30 02:22:40;;;;;;;77.93;2.60;;;18.60;31.50;;;;;;5050420;28;20270;-70
2023/05/30 02:25:06;;;;;;;77.57;2.27;;;18.50;31.90;;;;;;5051573;28;20176;-70
2023/05/30 02:27:32;;;;;;;78.03;2.50;;;18.50;31.40;;;;;;5051540;28;20225;-70
2023/05/30 02:29:57;;;;;;;83.00;3.50;;;18.50;31.40;;;;;;5051350;28;20450;-70
2023/05/30 02:32:23;;;;;;;78.07;2.70;;;18.50;31.50;;;;;;5051519;28;20195;-70
2023/05/30 02:34:48;;;;;;;78.30;2.67;;;18.50;31.90;;;;;;5050486;28;20165;-70
2023/05/30 02:37:14;;;;;;;78.80;3.00;;;18.30;32.20;;;;;;5049987;28;20682;-70
2023/05/30 02:39:40;;;;;;;78.20;2.43;;;18.20;31.10;;;;;;5051333;28;20172;-71
2023/05/30 02:42:06;;;;;;;78.37;2.30;;;18.10;32.20;;;;;;5051294;28;20305;-70
2023/05/30 02:44:31;;;;;;;77.73;2.10;;;18.10;32.70;;;;;;5050606;28;20168;-70
2023/05/30 02:46:57;;;;;;;78.70;2.67;;;18.00;33.00;;;;;;5051243;28;20481;-70
2023/05/30 02:49:23;;;;;;;77.97;2.10;;;18.00;31.40;;;;;;5049997;28;20205;-70
2023/05/30 02:51:49;;;;;;;77.90;2.07;;;18.00;32.60;;;;;;5051036;28;20192;-72
2023/05/30 02:54:14;;;;;;;77.87;2.00;;;18.00;32.60;;;;;;5050451;28;20223;-72
2023/05/30 02:56:40;;;;;;;78.37;2.13;;;17.80;33.20;;;;;;5051230;28;20812;-70
2023/05/30 02:59:05;;;;;;;78.40;2.40;;;17.80;33.60;;;;;;5051120;28;20206;-70
2023/05/30 03:01:31;;;;;;;78.07;2.13;;;17.90;33.40;;;;;;5051157;28;20587;-70
2023/05/30 03:03:56;;;;;;;78.47;2.57;;;17.80;32.80;;;;;;5050216;28;20178;-72
2023/05/30 03:06:24;;;;;;;78.40;2.23;;;17.80;32.90;;;;;;5051007;28;20251;-70
2023/05/30 03:08:57;;;;;;;78.60;2.43;;;17.80;32.70;;;;;;5051269;28;20649;-70
2023/05/30 03:11:23;;;;;;;78.13;2.20;;;17.80;32.30;;;;;;5051056;28;20440;-70
2023/05/30 03:13:50;;;;;;;78.23;2.10;;;17.70;32.80;;;;;;5050406;28;20895;-70
2023/05/30 03:16:16;;;;;;;78.87;2.40;;;17.70;32.60;;;;;;5052668;28;20171;-70
2023/05/30 03:18:41;;;;;;;78.20;1.97;;;17.70;32.10;;;;;;5053345;28;20437;-72
2023/05/30 03:21:08;;;;;;;78.90;2.60;;;17.80;33.00;;;;;;5054634;28;20574;-72
2023/05/30 03:23:33;;;;;;;78.33;1.90;;;17.60;33.00;;;;;;5053111;28;20172;-70
2023/05/30 03:25:59;;;;;;;78.43;2.13;;;17.70;34.20;;;;;;5054702;28;20416;-71
2023/05/30 03:28:25;;;;;;;79.40;2.47;;;17.50;34.10;;;;;;5054820;28;20216;-70
2023/05/30 03:30:51;;;;;;;79.87;3.00;;;17.50;34.00;;;;;;5053320;28;20643;-70
2023/05/30 03:33:17;;;;;;;79.87;2.70;;;17.70;33.60;;;;;;5054143;28;20191;-69
2023/05/30 03:35:43;;;;;;;79.37;2.37;;;17.50;34.00;;;;;;5053109;28;20426;-70
2023/05/30 03:38:08;;;;;;;79.03;2.17;;;17.50;34.60;;;;;;5053288;28;20421;-70
2023/05/30 03:40:34;;;;;;;79.47;2.57;;;17.50;33.60;;;;;;5054387;28;20668;-70
2023/05/30 03:43:00;;;;;;;79.60;2.60;;;17.40;33.60;;;;;;5053793;28;20277;-70
2023/05/30 03:45:25;;;;;;;80.57;2.60;;;17.50;34.00;;;;;;5054506;28;20168;-69
2023/05/30 03:47:51;;;;;;;79.33;2.30;;;17.40;35.40;;;;;;5054246;28;20195;-71
2023/05/30 03:50:17;;;;;;;79.97;2.60;;;17.50;35.30;;;;;;5053061;28;20177;-70
2023/05/30 03:52:42;;;;;;;80.00;2.70;;;17.50;34.30;;;;;;5052040;28;20199;-71
2023/05/30 03:55:08;;;;;;;79.27;2.10;;;17.40;34.90;;;;;;5053024;28;20654;-71
2023/05/30 03:57:34;;;;;;;79.30;2.23;;;17.70;34.10;;;;;;5054343;28;20226;-71
2023/05/30 03:59:59;;;;;;;79.60;2.30;;;17.60;34.70;;;;;;5054065;28;20414;-72
2023/05/30 04:02:25;;;;;;;80.07;2.70;;;17.50;34.50;;;;;;5053882;28;20234;-71
2023/05/30 04:04:52;;;;;;;79.50;2.30;;;17.50;34.90;;;;;;5053422;28;20173;-71
2023/05/30 04:07:18;;;;;;;79.87;2.50;;;17.50;34.50;;;;;;5054087;28;20209;-70
2023/05/30 04:09:44;;;;;;;79.90;2.37;;;17.40;34.00;;;;;;5053821;28;20463;-71
2023/05/30 04:12:10;;;;;;;79.97;2.57;;;17.40;35.00;;;;;;5054025;28;20271;-71
2023/05/30 04:14:35;;;;;;;79.67;2.30;;;17.50;34.60;;;;;;5053225;28;20164;-71
2023/05/30 04:17:01;;;;;;;80.17;2.77;;;17.50;34.50;;;;;;5052517;28;20863;-72
2023/05/30 04:19:26;;;;;;;80.20;2.30;;;17.50;35.40;;;;;;5053722;28;20646;-71
2023/05/30 04:21:52;;;;;;;80.13;2.50;;;17.50;34.60;;;;;;5053547;28;20208;-71
2023/05/30 04:24:18;;;;;;;80.00;2.37;;;17.50;35.00;;;;;;5053039;28;20218;-72
2023/05/30 04:26:48;;;;;;;80.43;2.70;;;17.50;35.60;;;;;;5053664;28;20203;-71
2023/05/30 04:29:14;;;;;;;81.13;2.80;;;17.50;35.60;;;;;;5053453;28;20259;-71
2023/05/30 04:31:39;;;;;;;79.60;1.90;;;17.60;35.10;;;;;;5052178;28;20520;-71
2023/05/30 04:34:05;;;;;;;80.03;2.20;;;17.60;35.60;;;;;;5052672;28;20406;-71
2023/05/30 04:36:32;;;;;;;80.43;2.30;;;17.60;36.10;;;;;;5053567;28;20176;-70
2023/05/30 04:38:58;;;;;;;80.20;2.40;;;17.70;36.00;;;;;;5052137;28;20272;-71
2023/05/30 04:41:25;;;;;;;80.20;2.47;;;17.80;35.70;;;;;;5052020;28;20445;-71
2023/05/30 04:43:54;;;;;;;80.60;2.67;;;17.80;36.10;;;;;;5052916;28;20414;-71
2023/05/30 04:46:21;;;;;;;80.20;2.30;;;17.90;35.70;;;;;;5053491;28;20461;-71
2023/05/30 04:48:48;;;;;;;80.60;2.40;;;17.80;35.50;;;;;;5052092;28;20409;-71
2023/05/30 04:51:14;;;;;;;80.67;2.40;;;17.90;34.50;;;;;;5052996;28;20426;-71
2023/05/30 04:53:40;;;;;;;81.40;2.80;;;18.00;35.80;;;;;;5052672;28;20915;-71
2023/05/30 04:56:06;;;;;;;80.17;2.10;;;18.10;34.70;;;;;;5053089;28;20413;-71
2023/05/30 04:58:32;;;;;;;80.17;2.07;;;18.10;35.10;;;;;;5053383;28;20644;-71
2023/05/30 05:00:58;;;;;;;80.93;2.43;;;18.20;33.60;;;;;;5051363;28;20414;-71
2023/05/30 05:03:24;;;;;;;80.47;2.43;;;18.20;34.10;;;;;;5051077;28;20725;-72
2023/05/30 05:05:50;;;;;;;85.57;2.93;;;18.20;34.80;;;;;;5052860;28;20481;-71
2023/05/30 05:08:16;;;;;;;80.80;2.40;;;18.30;35.60;;;;;;5053029;28;20602;-71
2023/05/30 05:10:41;;;;;;;81.47;2.90;;;18.30;34.20;;;;;;5052819;28;20172;-71
2023/05/30 05:13:07;;;;;;;80.70;2.50;;;18.30;34.60;;;;;;5052737;28;20623;-72
2023/05/30 05:15:33;;;;;;;81.40;2.87;;;18.30;34.70;;;;;;5053111;28;20168;-73
2023/05/30 05:17:58;;;;;;;82.30;3.50;;;18.40;33.10;;;;;;5052760;28;20205;-72
2023/05/30 05:20:26;;;;;;;102.03;5.30;;;18.40;33.00;;;;;;5052644;28;20586;-71
2023/05/30 05:22:54;;;;;;;80.80;2.23;;;18.50;35.00;;;;;;5050709;28;20242;-71
2023/05/30 05:25:19;;;;;;;82.00;2.60;;;18.50;33.10;;;;;;5052738;28;20417;-71
2023/05/30 05:27:45;;;;;;;81.00;2.97;;;18.60;31.90;;;;;;5052811;28;20454;-71
2023/05/30 05:30:11;;;;;;;81.83;2.70;;;18.40;33.30;;;;;;5050992;28;20615;-71
2023/05/30 05:32:38;;;;;;;82.60;2.93;;;18.50;33.40;;;;;;5052037;28;20230;-71
2023/05/30 05:35:07;;;;;;;80.80;2.30;;;18.60;33.00;;;;;;5052773;28;20164;-71
2023/05/30 05:37:34;;;;;;;81.50;2.37;;;18.80;33.30;;;;;;5052963;28;20414;-71
2023/05/30 05:40:01;;;;;;;81.13;2.67;;;18.90;34.70;;;;;;5051333;28;20411;-72
2023/05/30 05:42:26;;;;;;;81.20;2.70;;;19.00;33.30;;;;;;5052103;28;20809;-72
2023/05/30 05:44:52;;;;;;;81.30;2.47;;;19.10;32.50;;;;;;5051502;28;20524;-71
2023/05/30 05:47:17;;;;;;;82.67;3.17;;;18.90;30.60;;;;;;5050755;28;20215;-72
2023/05/30 05:49:43;;;;;;;82.00;3.07;;;18.70;32.00;;;;;;5052284;28;20509;-71
2023/05/30 05:52:09;;;;;;;81.07;2.40;;;18.80;31.50;;;;;;5051912;28;20188;-71
2023/05/30 05:54:34;;;;;;;80.87;2.50;;;18.90;31.10;;;;;;5051515;28;20206;-72
2023/05/30 05:57:00;;;;;;;81.07;2.57;;;20.50;32.80;;;;;;5051936;28;20172;-71
2023/05/30 05:59:25;;;;;;;81.07;2.50;;;18.40;31.60;;;;;;5051910;28;20183;-72
2023/05/30 06:01:52;;;;;;;81.03;2.53;;;18.50;31.80;;;;;;5051457;28;20281;-71
2023/05/30 06:04:17;;;;;;;80.73;2.23;;;18.80;32.10;;;;;;5050123;28;20174;-72
2023/05/30 06:06:44;;;;;;;80.60;2.17;;;18.90;32.20;;;;;;5050907;28;20467;-71
2023/05/30 06:09:10;;;;;;;81.20;2.73;;;19.40;29.50;;;;;;5052453;28;20177;-71
2023/05/30 06:11:36;;;;;;;80.67;2.10;;;19.70;29.60;;;;;;5050044;28;20954;-71
2023/05/30 06:14:01;;;;;;;81.30;2.87;;;19.50;28.60;;;;;;5051052;28;20901;-72
2023/05/30 06:16:27;;;;;;;81.17;2.60;;;19.40;28.50;;;;;;5051815;28;20545;-72
2023/05/30 06:18:52;;;;;;;81.17;2.37;;;19.60;28.70;;;;;;5051597;28;20184;-71
2023/05/30 06:21:18;;;;;;;81.37;2.40;;;19.80;28.20;;;;;;5051397;28;20311;-73
2023/05/30 06:23:44;;;;;;;81.03;2.53;;;20.00;28.60;;;;;;5050874;28;20639;-71
2023/05/30 06:26:09;;;;;;;81.07;2.40;;;20.00;27.90;;;;;;5050109;28;20180;-71
2023/05/30 06:28:36;;;;;;;80.87;2.50;;;20.00;28.10;;;;;;5051431;28;20232;-72
2023/05/30 06:31:01;;;;;;;81.10;2.40;;;19.90;28.90;;;;;;5051322;28;20203;-72
2023/05/30 06:33:27;;;;;;;80.70;2.40;;;20.10;27.70;;;;;;5050875;28;20433;-72
2023/05/30 06:35:52;;;;;;;80.50;2.30;;;19.90;27.90;;;;;;5051538;28;20171;-71
2023/05/30 06:38:19;;;;;;;81.13;2.30;;;19.90;28.40;;;;;;5051163;28;20257;-71
2023/05/30 06:40:45;;;;;;;81.87;2.70;;;19.90;28.20;;;;;;5049629;28;20556;-72
2023/05/30 06:43:11;;;;;;;80.87;2.70;;;19.80;28.00;;;;;;5050410;28;20420;-72
2023/05/30 06:45:36;;;;;;;80.43;2.43;;;20.00;29.70;;;;;;5051266;28;20705;-72
2023/05/30 06:48:02;;;;;;;80.33;2.20;;;20.20;27.00;;;;;;5050797;28;20203;-72
2023/05/30 06:50:28;;;;;;;80.20;2.20;;;20.40;27.10;;;;;;5052203;28;20224;-72
2023/05/30 06:52:54;;;;;;;79.80;2.00;;;20.30;28.20;;;;;;5056990;28;20437;-73
2023/05/30 06:55:19;;;;;;;82.03;2.47;;;20.50;27.50;;;;;;5058053;28;20896;-72
2023/05/30 06:57:46;;;;;;;80.40;2.50;;;20.50;27.60;;;;;;5057589;28;20297;-71
2023/05/30 07:00:12;;;;;;;80.37;2.47;;;20.50;27.10;;;;;;5057746;28;20175;-72
2023/05/30 07:02:37;;;;;;;80.40;2.90;;;20.70;27.50;;;;;;5057047;28;20834;-72
2023/05/30 07:05:03;;;;;;;80.00;2.40;;;20.80;27.10;;;;;;5057757;28;20407;-71
2023/05/30 07:07:29;;;;;;;79.97;2.10;;;20.70;27.20;;;;;;5057737;28;20194;-71
2023/05/30 07:09:55;;;;;;;79.90;2.40;;;20.90;28.00;;;;;;5057352;28;20408;-71
2023/05/30 07:12:20;;;;;;;79.70;2.27;;;20.90;27.30;;;;;;5057620;28;20186;-71
2023/05/30 07:14:46;;;;;;;82.87;2.50;;;20.70;26.80;;;;;;5057120;28;20170;-72
2023/05/30 07:17:12;;;;;;;80.43;2.20;;;20.90;26.80;;;;;;5057629;28;20175;-72
2023/05/30 07:19:38;;;;;;;82.00;2.63;;;21.00;27.20;;;;;;5057866;28;20450;-72
2023/05/30 07:22:04;;;;;;;79.37;2.10;;;21.30;26.10;;;;;;5057482;28;20208;-72
2023/05/30 07:24:30;;;;;;;79.90;2.53;;;20.90;27.20;;;;;;5055700;28;20423;-72
2023/05/30 07:26:55;;;;;;;82.97;2.53;;;21.10;26.80;;;;;;5055880;28;20477;-72
2023/05/30 07:29:21;;;;;;;79.97;2.60;;;21.10;26.80;;;;;;5057671;28;20554;-72
2023/05/30 07:31:46;;;;;;;80.50;2.97;;;21.00;27.10;;;;;;5057451;28;20191;-72
2023/05/30 07:34:12;;;;;;;79.40;2.27;;;21.40;27.00;;;;;;5056953;28;20244;-72
2023/05/30 07:36:38;;;;;;;79.40;2.20;;;21.60;27.10;;;;;;5057508;28;20170;-71
2023/05/30 07:39:03;;;;;;;79.37;2.47;;;21.00;26.70;;;;;;5057463;28;20174;-71
2023/05/30 07:41:29;;;;;;;79.00;2.13;;;21.00;26.70;;;;;;5057773;28;20249;-73
2023/05/30 07:43:54;;;;;;;80.17;2.63;;;21.40;27.00;;;;;;5055258;28;20178;-73
2023/05/30 07:46:20;;;;;;;79.70;2.47;;;21.40;25.80;;;;;;5057703;28;20660;-73
2023/05/30 07:48:46;;;;;;;79.23;2.50;;;20.80;27.10;;;;;;5057406;28;20295;-73
2023/05/30 07:51:12;;;;;;;80.40;2.60;;;21.30;26.90;;;;;;5057386;28;20783;-72
2023/05/30 07:53:37;;;;;;;79.20;2.50;;;20.80;26.70;;;;;;5056572;28;20178;-73
2023/05/30 07:56:03;;;;;;;80.67;2.70;;;21.00;26.70;;;;;;5057346;28;20764;-73
2023/05/30 07:58:29;;;;;;;79.27;2.43;;;22.90;28.00;;;;;;5056103;28;20189;-73
2023/05/30 08:00:55;;;;;;;78.37;2.13;;;21.00;26.20;;;;;;5057226;28;20199;-73
2023/05/30 08:03:21;;;;;;;78.47;2.23;;;21.00;27.30;;;;;;5053233;28;20165;-72
2023/05/30 08:05:50;;;;;;;78.73;2.27;;;21.50;27.00;;;;;;5054407;28;20425;-72
2023/05/30 08:08:16;;;;;;;80.20;2.70;;;21.10;26.80;;;;;;5054306;28;20476;-73
2023/05/30 08:10:42;;;;;;;78.80;2.67;;;20.70;26.50;;;;;;5054073;28;20831;-71
2023/05/30 08:13:08;;;;;;;78.30;2.40;;;20.80;27.20;;;;;;5053307;28;20419;-73
2023/05/30 08:15:33;;;;;;;78.87;2.50;;;21.30;27.10;;;;;;5054024;28;20207;-73
2023/05/30 08:18:00;;;;;;;78.73;2.40;;;20.90;26.10;;;;;;5053806;28;20180;-73
2023/05/30 08:20:26;;;;;;;78.23;2.10;;;21.40;26.80;;;;;;5052662;28;20266;-73
2023/05/30 08:22:52;;;;;;;79.10;2.73;;;21.90;26.90;;;;;;5052933;28;20460;-73
2023/05/30 08:25:23;;;;;;;79.53;2.60;;;22.20;25.40;;;;;;5053775;28;20415;-72
2023/05/30 08:27:55;;;;;;;78.00;2.20;;;22.00;25.50;;;;;;5053493;28;20247;-72
2023/05/30 08:30:21;;;;;;;78.30;2.37;;;22.20;24.90;;;;;;5053785;28;20474;-74
2023/05/30 08:32:47;;;;;;;79.20;2.73;;;22.30;26.10;;;;;;5052707;28;20939;-72
2023/05/30 08:35:13;;;;;;;78.37;2.50;;;22.70;25.40;;;;;;5053062;28;20166;-73
2023/05/30 08:37:39;;;;;;;77.77;2.20;;;21.50;25.70;;;;;;5053373;28;20175;-73
2023/05/30 08:40:09;;;;;;;77.87;2.10;;;21.10;25.30;;;;;;5053380;28;20411;-71
2023/05/30 08:42:34;;;;;;;78.57;2.60;;;20.70;26.80;;;;;;5052774;28;20188;-71
2023/05/30 08:45:00;;;;;;;77.60;2.10;;;20.90;25.70;;;;;;5053040;28;20421;-72
2023/05/30 08:47:26;;;;;;;79.70;3.40;;;20.40;27.00;;;;;;5053291;28;20187;-71
2023/05/30 08:49:52;;;;;;;77.67;2.43;;;21.00;26.80;;;;;;5053507;28;20178;-73
2023/05/30 08:52:19;;;;;;;77.77;2.40;;;21.10;26.20;;;;;;5053016;28;20432;-72
2023/05/30 08:55:00;;;;;;;77.37;2.40;;;21.70;25.50;;;;;;5051218;28;20775;-72
2023/05/30 08:57:51;;;;;;;77.80;2.43;;;22.20;24.80;;;;;;5053026;28;20395;-72
2023/05/30 09:00:18;;;;;;;77.77;2.60;;;22.60;24.50;;;;;;5053137;28;20421;-72
2023/05/30 09:02:44;;;;;;;78.03;2.67;;;22.80;25.40;;;;;;5052457;28;20441;-72
2023/05/30 09:05:12;;;;;;;77.60;2.40;;;23.00;24.50;;;;;;5053115;28;20776;-71
2023/05/30 09:07:39;;;;;;;77.40;2.20;;;22.90;24.20;;;;;;5052589;28;20507;-70
2023/05/30 09:10:07;;;;;;;80.60;2.83;;;23.10;23.40;;;;;;5053185;28;20407;-71
2023/05/30 09:12:32;;;;;;;78.27;2.37;;;23.00;25.10;;;;;;5052454;28;20424;-70
2023/05/30 09:14:58;;;;;;;78.30;2.83;;;22.40;24.50;;;;;;5052371;28;20948;-71
2023/05/30 09:17:24;;;;;;;77.37;2.40;;;22.30;25.10;;;;;;5052802;28;20173;-71
2023/05/30 09:19:50;;;;;;;79.70;2.63;;;22.10;24.00;;;;;;5051071;28;20425;-70
2023/05/30 09:22:16;;;;;;;77.60;2.37;;;22.20;25.60;;;;;;5052466;28;20324;-72
2023/05/30 09:25:03;;;;;;;77.57;2.40;;;22.20;24.90;;;;;;5052035;28;20506;-72
2023/05/30 09:27:32;;;;;;;79.37;3.20;;;22.90;24.80;;;;;;5051198;28;20198;-70
2023/05/30 09:30:06;;;;;;;79.80;2.50;;;23.30;24.40;;;;;;5052197;28;20906;-70
2023/05/30 09:32:36;;;;;;;77.50;2.20;;;23.20;24.70;;;;;;5052080;28;20442;-71
2023/05/30 09:35:09;;;;;;;77.80;2.43;;;23.70;24.40;;;;;;5052487;28;20449;-70
2023/05/30 09:37:43;;;;;;;77.07;2.37;;;24.00;22.80;;;;;;5051156;28;20800;-71
2023/05/30 09:40:16;;;;;;;77.10;2.27;;;23.90;23.20;;;;;;5052113;28;20408;-70
2023/05/30 09:42:53;;;;;;;77.63;2.70;;;24.40;22.40;;;;;;5051721;28;20440;-71
2023/05/30 09:45:27;;;;;;;76.57;2.10;;;24.70;21.90;;;;;;5052239;28;20439;-71
2023/05/30 09:47:53;;;;;;;77.30;2.70;;;24.60;22.10;;;;;;5050845;28;20456;-71
2023/05/30 09:50:21;;;;;;;76.67;2.17;;;24.40;21.50;;;;;;5050782;28;20425;-71
2023/05/30 09:52:49;;;;;;;76.80;2.17;;;24.50;21.70;;;;;;5049854;28;20192;-71
2023/05/30 09:55:15;;;;;;;77.53;2.60;;;24.60;22.50;;;;;;5052014;28;20410;-71
2023/05/30 09:57:46;;;;;;;76.90;2.57;;;24.70;22.00;;;;;;5052180;28;20417;-71
2023/05/30 10:00:15;;;;;;;77.60;2.80;;;24.40;22.40;;;;;;5050662;28;20441;-70
2023/05/30 10:02:52;;;;;;;78.40;3.13;;;23.50;23.30;;;;;;5051435;28;20430;-70
2023/05/30 10:05:25;;;;;;;76.37;2.20;;;23.00;23.90;;;;;;5051911;28;20401;-71
2023/05/30 10:07:55;;;;;;;76.50;2.60;;;23.80;23.80;;;;;;5051617;28;20525;-72
2023/05/30 10:10:22;;;;;;;76.60;2.53;;;24.40;22.90;;;;;;5051780;28;20413;-71
2023/05/30 10:12:49;;;;;;;75.93;2.33;;;24.90;22.30;;;;;;5051102;28;20422;-71
2023/05/30 10:15:16;;;;;;;75.77;2.30;;;25.30;21.60;;;;;;5051721;28;20406;-73
2023/05/30 10:17:46;;;;;;;75.80;2.53;;;25.30;22.20;;;;;;5051345;28;20429;-74
2023/05/30 10:20:14;;;;;;;78.20;2.40;;;25.10;22.00;;;;;;5051607;28;20417;-71
2023/05/30 10:22:43;;;;;;;75.97;2.50;;;25.20;20.70;;;;;;5050813;28;20454;-71
2023/05/30 10:25:10;;;;;;;75.70;2.27;;;25.10;21.40;;;;;;5050977;28;20406;-70
2023/05/30 10:27:44;;;;;;;76.30;2.57;;;25.20;21.20;;;;;;5049910;28;20446;-71
2023/05/30 10:30:13;;;;;;;75.37;2.30;;;25.40;21.10;;;;;;5051311;28;20790;-72
2023/05/30 10:32:50;;;;;;;75.13;2.20;;;25.60;21.90;;;;;;5050778;28;20425;-71
2023/05/30 10:35:18;;;;;;;74.97;2.23;;;25.50;20.70;;;;;;5051485;28;20386;-70
2023/05/30 10:37:46;;;;;;;74.90;2.40;;;25.10;21.50;;;;;;5050045;28;20476;-71
2023/05/30 10:40:20;;;;;;;74.90;2.40;;;25.50;21.20;;;;;;5050057;28;20869;-70
2023/05/30 10:43:18;;;;;;;75.30;2.47;;;26.10;20.10;;;;;;5050596;28;20429;-71
2023/05/30 10:45:52;;;;;;;74.57;2.40;;;26.30;20.60;;;;;;5051272;28;20402;-72
2023/05/30 10:48:28;;;;;;;74.83;2.50;;;26.00;19.40;;;;;;5050063;28;20991;-71
2023/05/30 10:50:59;;;;;;;75.70;3.00;;;26.30;19.60;;;;;;5050839;28;20390;-71
2023/05/30 10:53:25;;;;;;;74.57;2.50;;;26.60;18.60;;;;;;5050759;28;20598;-71
2023/05/30 10:55:50;;;;;;;75.00;2.40;;;26.70;19.40;;;;;;5049898;28;21002;-72
2023/05/30 10:58:37;;;;;;;74.80;2.20;;;26.70;19.20;;;;;;5050259;28;20175;-71
2023/05/30 11:01:21;;;;;;;74.70;2.30;;;26.30;19.90;;;;;;5051108;28;20619;-71
2023/05/30 11:03:46;;;;;;;74.77;2.20;;;26.10;20.50;;;;;;5050373;28;20744;-71
2023/05/30 11:06:14;;;;;;;75.00;2.40;;;26.70;19.30;;;;;;5049842;28;20425;-71
2023/05/30 11:08:40;;;;;;;74.23;2.30;;;27.00;18.70;;;;;;5051127;28;20546;-71
2023/05/30 11:11:16;;;;;;;74.87;2.80;;;27.60;18.50;;;;;;5051008;28;21047;-72
2023/05/30 11:13:46;;;;;;;74.07;2.30;;;27.60;17.30;;;;;;5050404;28;20484;-72
2023/05/30 11:16:30;;;;;;;73.77;2.23;;;27.00;17.80;;;;;;5051091;28;20790;-72
2023/05/30 11:19:08;;;;;;;74.50;2.37;;;27.10;17.20;;;;;;5050827;28;20878;-72
2023/05/30 11:21:53;;;;;;;74.20;2.60;;;27.50;17.20;;;;;;5050708;28;20448;-72
2023/05/30 11:24:20;;;;;;;73.07;2.20;;;27.40;18.10;;;;;;5049011;28;20410;-72
2023/05/30 11:27:07;;;;;;;73.00;2.03;;;28.00;17.50;;;;;;5050832;28;20978;-72
2023/05/30 11:29:37;;;;;;;74.90;2.60;;;29.20;16.00;;;;;;5049692;28;20414;-73
2023/05/30 11:32:07;;;;;;;73.37;2.30;;;30.00;13.80;;;;;;5050510;28;20796;-72
2023/05/30 11:34:33;;;;;;;73.27;1.90;;;30.10;13.70;;;;;;5050280;28;20957;-73
2023/05/30 11:36:59;;;;;;;72.47;1.67;;;30.60;14.30;;;;;;5049424;28;20516;-73
2023/05/30 11:39:25;;;;;;;72.47;2.00;;;30.60;13.60;;;;;;5054013;28;20540;-73
2023/05/30 11:41:51;;;;;;;71.87;2.10;;;30.90;14.10;;;;;;5054589;28;20188;-74
2023/05/30 11:44:17;;;;;;;72.67;2.30;;;32.50;12.60;;;;;;5054262;28;20421;-73
2023/05/30 11:46:43;;;;;;;71.23;2.10;;;33.30;11.60;;;;;;5054413;28;20441;-72
2023/05/30 11:49:09;;;;;;;70.10;1.80;;;32.00;11.00;;;;;;5054476;28;20725;-73
2023/05/30 11:51:38;;;;;;;70.00;2.00;;;31.80;11.10;;;;;;5054294;28;20199;-73
2023/05/30 11:54:06;;;;;;;68.60;1.80;;;33.10;11.90;;;;;;5052708;28;20686;-73
2023/05/30 11:56:31;;;;;;;67.87;1.80;;;32.70;11.00;;;;;;5054594;28;20407;-73
2023/05/30 11:58:58;;;;;;;67.97;1.97;;;33.70;11.70;;;;;;5054345;28;20770;-73
2023/05/30 12:01:24;;;;;;;67.07;1.90;;;34.10;8.40;;;;;;5054187;28;20203;-73
2023/05/30 12:03:50;;;;;;;66.83;1.90;;;34.10;9.40;;;;;;5053221;28;20767;-73
2023/05/30 12:06:15;;;;;;;67.10;1.80;;;35.10;8.30;;;;;;5054049;28;20409;-73
2023/05/30 12:08:42;;;;;;;67.10;1.97;;;33.60;10.40;;;;;;5054412;28;20171;-73
2023/05/30 12:11:12;;;;;;;66.30;1.90;;;34.00;10.70;;;;;;5053943;28;20187;-73
2023/05/30 12:13:37;;;;;;;65.87;1.70;;;34.40;8.70;;;;;;5052027;28;20463;-73
2023/05/30 12:16:03;;;;;;;67.00;2.13;;;35.20;7.00;;;;;;5053955;28;20817;-73
2023/05/30 12:18:32;;;;;;;65.57;1.83;;;36.10;7.50;;;;;;5053970;28;20175;-73
2023/05/30 12:21:01;;;;;;;65.20;1.90;;;36.00;6.40;;;;;;5053540;28;20171;-73
2023/05/30 12:23:27;;;;;;;64.40;1.57;;;34.30;8.30;;;;;;5053413;28;20395;-73
2023/05/30 12:25:54;;;;;;;64.47;1.80;;;34.00;7.10;;;;;;5053578;28;20417;-73
2023/05/30 12:28:21;;;;;;;64.40;1.97;;;34.30;8.10;;;;;;5053736;28;20462;-73
2023/05/30 12:30:50;;;;;;;64.17;2.00;;;34.60;8.00;;;;;;5053479;28;20805;-73
2023/05/30 12:33:21;;;;;;;63.23;1.60;;;34.40;8.90;;;;;;5051925;28;20841;-73
2023/05/30 12:35:55;;;;;;;63.30;1.70;;;35.00;7.70;;;;;;5051227;28;20786;-73
2023/05/30 12:38:21;;;;;;;63.40;2.07;;;36.00;6.60;;;;;;5053062;28;20502;-73
2023/05/30 12:40:48;;;;;;;61.80;1.57;;;36.30;4.60;;;;;;5053382;28;20410;-73